createdAt,value
2023-04-29T00:01:43.386Z,10.19
2023-04-29T00:04:13.826Z,10.77
2023-04-29T00:06:42.076Z,10.22
2023-04-29T00:09:09.544Z,10.29
2023-04-29T00:11:37.005Z,10.43
2023-04-29T00:14:04.579Z,10.59
2023-04-29T00:16:32.194Z,10.88
2023-04-29T00:19:00.186Z,10.87
2023-04-29T00:21:28.984Z,10.90
2023-04-29T00:23:56.909Z,10.94
2023-04-29T00:26:24.353Z,9.78
2023-04-29T00:28:51.908Z,10.62
2023-04-29T00:31:19.500Z,10.74
2023-04-29T00:33:47.032Z,10.34
2023-04-29T00:36:14.466Z,10.32
2023-04-29T00:38:43.296Z,9.92
2023-04-29T00:41:11.070Z,10.51
2023-04-29T00:43:38.549Z,10.02
2023-04-29T00:46:06.137Z,9.77
2023-04-29T00:48:34.532Z,10.30
2023-04-29T00:51:02.408Z,10.11
2023-04-29T00:53:30.638Z,10.49
2023-04-29T00:56:00.700Z,10.24
2023-04-29T00:58:33.529Z,10.08
2023-04-29T01:01:01.803Z,10.20
2023-04-29T01:03:30.066Z,10.35
2023-04-29T01:06:08.913Z,10.35
2023-04-29T01:08:48.528Z,10.55
2023-04-29T01:11:23.249Z,10.44
2023-04-29T01:13:51.366Z,10.21
2023-04-29T01:16:24.445Z,10.29
2023-04-29T01:18:56.306Z,10.24
2023-04-29T01:21:25.898Z,10.45
2023-04-29T01:23:56.355Z,10.41
2023-04-29T01:26:24.567Z,10.39
2023-04-29T01:28:57.359Z,10.50
2023-04-29T01:31:37.609Z,10.46
2023-04-29T01:34:10.327Z,10.34
2023-04-29T01:36:50.260Z,10.50
2023-04-29T01:39:27.969Z,10.46
2023-04-29T01:42:00.564Z,10.64
2023-04-29T01:44:31.639Z,10.65
2023-04-29T01:47:00.319Z,10.56
2023-04-29T01:49:28.477Z,10.39
2023-04-29T01:51:56.200Z,10.35
2023-04-29T01:54:25.015Z,10.56
2023-04-29T01:56:52.870Z,10.49
2023-04-29T01:59:20.932Z,10.51
2023-04-29T02:01:48.750Z,10.56
2023-04-29T02:04:16.235Z,10.45
2023-04-29T02:06:44.298Z,10.59
2023-04-29T02:09:11.837Z,10.62
2023-04-29T02:11:40.672Z,10.58
2023-04-29T02:14:08.118Z,10.60
2023-04-29T02:16:35.720Z,10.35
2023-04-29T02:19:03.213Z,10.53
2023-04-29T02:21:31.715Z,10.53
2023-04-29T02:23:59.018Z,10.59
2023-04-29T02:26:26.846Z,10.52
2023-04-29T02:28:57.108Z,10.57
2023-04-29T02:31:24.705Z,10.53
2023-04-29T02:33:52.191Z,10.34
2023-04-29T02:36:20.095Z,10.43
2023-04-29T02:38:50.501Z,10.40
2023-04-29T02:41:18.919Z,10.42
2023-04-29T02:43:46.488Z,10.30
2023-04-29T02:46:15.480Z,10.52
2023-04-29T02:48:42.977Z,10.45
2023-04-29T02:51:10.511Z,10.34
2023-04-29T02:53:38.012Z,10.54
2023-04-29T02:56:05.889Z,10.57
2023-04-29T02:58:33.391Z,10.44
2023-04-29T03:01:01.040Z,10.28
2023-04-29T03:03:30.157Z,10.42
2023-04-29T03:05:57.730Z,10.48
2023-04-29T03:08:25.187Z,10.52
2023-04-29T03:10:52.645Z,10.33
2023-04-29T03:13:20.732Z,10.24
2023-04-29T03:15:48.214Z,10.38
2023-04-29T03:18:15.772Z,10.62
2023-04-29T03:20:44.592Z,10.62
2023-04-29T03:23:12.088Z,10.59
2023-04-29T03:25:39.570Z,10.62
2023-04-29T03:28:07.034Z,10.57
2023-04-29T03:30:34.577Z,10.57
2023-04-29T03:33:02.409Z,10.48
2023-04-29T03:35:29.926Z,10.52
2023-04-29T03:37:58.758Z,10.46
2023-04-29T03:40:26.203Z,10.38
2023-04-29T03:42:53.702Z,10.42
2023-04-29T03:45:21.209Z,10.54
2023-04-29T03:47:49.183Z,10.55
2023-04-29T03:50:16.851Z,10.53
2023-04-29T03:52:44.391Z,10.54
2023-04-29T03:55:13.534Z,10.58
2023-04-29T03:57:42.422Z,10.53
2023-04-29T04:00:11.259Z,10.60
2023-04-29T04:02:39.018Z,10.60
2023-04-29T04:05:06.961Z,10.45
2023-04-29T04:07:34.470Z,10.52
2023-04-29T04:10:01.924Z,10.50
2023-04-29T04:12:30.712Z,10.48
2023-04-29T04:14:59.161Z,10.56
2023-04-29T04:17:26.968Z,10.66
2023-04-29T04:19:54.944Z,10.67
2023-04-29T04:22:22.607Z,10.66
2023-04-29T04:24:50.168Z,10.74
2023-04-29T04:27:17.613Z,10.47
2023-04-29T04:29:46.417Z,10.55
2023-04-29T04:32:13.866Z,10.50
2023-04-29T04:34:41.446Z,10.54
2023-04-29T04:37:09.150Z,10.38
2023-04-29T04:39:36.726Z,10.29
2023-04-29T04:42:04.291Z,10.31
2023-04-29T04:44:32.190Z,10.50
2023-04-29T04:47:02.168Z,10.28
2023-04-29T04:49:29.678Z,10.44
2023-04-29T04:51:57.137Z,10.65
2023-04-29T04:54:24.621Z,10.67
2023-04-29T04:56:52.368Z,10.76
2023-04-29T04:59:20.025Z,10.68
2023-04-29T05:01:47.570Z,10.53
2023-04-29T05:04:16.645Z,10.73
2023-04-29T05:06:44.255Z,10.80
2023-04-29T05:09:11.921Z,10.66
2023-04-29T05:11:39.388Z,10.55
2023-04-29T05:14:07.134Z,10.62
2023-04-29T05:16:34.644Z,10.86
2023-04-29T05:19:02.189Z,10.83
2023-04-29T05:21:31.319Z,10.81
2023-04-29T05:23:58.799Z,10.87
2023-04-29T05:26:26.266Z,10.80
2023-04-29T05:28:53.797Z,10.80
2023-04-29T05:31:21.958Z,10.69
2023-04-29T05:33:49.594Z,10.81
2023-04-29T05:36:17.060Z,10.85
2023-04-29T05:38:46.202Z,10.93
2023-04-29T05:41:17.597Z,10.89
2023-04-29T05:43:45.168Z,11.04
2023-04-29T05:46:12.691Z,10.97
2023-04-29T05:48:40.192Z,10.99
2023-04-29T05:51:07.710Z,11.02
2023-04-29T05:53:35.742Z,11.04
2023-04-29T05:56:08.186Z,11.07
2023-04-29T05:58:35.663Z,11.14
2023-04-29T06:01:03.456Z,11.14
2023-04-29T06:03:31.205Z,11.15
2023-04-29T06:05:59.607Z,11.15
2023-04-29T06:08:27.662Z,11.18
2023-04-29T06:10:55.129Z,11.20
2023-04-29T06:13:24.839Z,11.18
2023-04-29T06:15:52.580Z,11.15
2023-04-29T06:18:20.840Z,11.12
2023-04-29T06:20:48.333Z,11.13
2023-04-29T06:23:15.823Z,11.12
2023-04-29T06:25:43.354Z,11.02
2023-04-29T06:28:10.871Z,11.10
2023-04-29T06:30:39.666Z,11.06
2023-04-29T06:33:08.110Z,11.15
2023-04-29T06:35:35.554Z,11.18
2023-04-29T06:38:03.385Z,11.22
2023-04-29T06:40:30.841Z,11.28
2023-04-29T06:42:58.718Z,11.29
2023-04-29T06:45:26.343Z,11.35
2023-04-29T06:47:55.420Z,11.31
2023-04-29T06:50:22.910Z,11.30
2023-04-29T06:52:50.496Z,11.34
2023-04-29T06:55:18.093Z,11.44
2023-04-29T06:57:45.518Z,11.46
2023-04-29T07:00:13.630Z,11.48
2023-04-29T07:02:41.157Z,11.42
2023-04-29T07:05:10.900Z,11.43
2023-04-29T07:07:38.383Z,11.42
2023-04-29T07:10:06.495Z,11.44
2023-04-29T07:12:33.934Z,11.37
2023-04-29T07:15:01.727Z,11.35
2023-04-29T07:17:31.324Z,11.35
2023-04-29T07:19:58.815Z,11.40
2023-04-29T07:22:27.590Z,11.48
2023-04-29T07:24:55.626Z,11.48
2023-04-29T07:27:23.247Z,11.49
2023-04-29T07:29:50.753Z,11.45
2023-04-29T07:32:18.371Z,11.41
2023-04-29T07:34:45.804Z,11.39
2023-04-29T07:37:13.752Z,11.46
2023-04-29T07:39:42.818Z,11.51
2023-04-29T07:42:10.325Z,11.60
2023-04-29T07:44:38.493Z,11.65
2023-04-29T07:47:06.112Z,11.80
2023-04-29T07:49:33.676Z,11.97
2023-04-29T07:52:02.227Z,12.13
2023-04-29T07:54:29.528Z,12.24
2023-04-29T07:57:00.433Z,12.22
2023-04-29T07:59:28.225Z,12.17
2023-04-29T08:01:55.675Z,12.14
2023-04-29T08:04:23.402Z,12.13
2023-04-29T08:06:51.089Z,12.06
2023-04-29T08:09:18.550Z,11.99
2023-04-29T08:11:46.578Z,12.04
2023-04-29T08:14:15.361Z,11.96
2023-04-29T08:16:42.855Z,11.94
2023-04-29T08:19:10.401Z,11.90
2023-04-29T08:21:37.977Z,11.89
2023-04-29T08:24:05.704Z,11.90
2023-04-29T08:26:33.198Z,11.94
2023-04-29T08:29:00.865Z,11.97
2023-04-29T08:31:29.702Z,11.97
2023-04-29T08:33:58.649Z,11.99
2023-04-29T08:36:28.522Z,11.87
2023-04-29T08:38:56.036Z,11.90
2023-04-29T08:41:24.612Z,11.93
2023-04-29T08:43:52.198Z,12.08
2023-04-29T08:46:20.920Z,12.21
2023-04-29T08:48:50.996Z,12.20
2023-04-29T08:51:18.558Z,12.23
2023-04-29T08:53:46.040Z,12.22
2023-04-29T08:56:20.393Z,12.31
2023-04-29T08:58:48.747Z,12.45
2023-04-29T09:01:16.811Z,12.27
2023-04-29T09:03:48.555Z,12.46
2023-04-29T09:06:17.850Z,12.38
2023-04-29T09:08:45.339Z,12.51
2023-04-29T09:11:14.705Z,12.47
2023-04-29T09:13:42.147Z,12.38
2023-04-29T09:16:12.084Z,12.40
2023-04-29T09:18:43.886Z,12.41
2023-04-29T09:21:19.045Z,12.44
2023-04-29T09:23:49.047Z,12.51
2023-04-29T09:26:17.025Z,12.49
2023-04-29T09:28:45.145Z,12.54
2023-04-29T09:31:13.567Z,12.78
2023-04-29T09:33:54.857Z,12.70
2023-04-29T09:36:44.925Z,13.12
2023-04-29T09:39:14.181Z,13.24
2023-04-29T09:41:43.494Z,13.26
2023-04-29T09:44:11.564Z,13.40
2023-04-29T09:46:39.266Z,13.59
2023-04-29T09:49:24.707Z,13.67
2023-04-29T09:51:58.259Z,13.47
2023-04-29T09:54:28.313Z,13.31
2023-04-29T09:56:56.999Z,13.15
2023-04-29T09:59:24.876Z,13.17
2023-04-29T10:01:53.948Z,13.08
2023-04-29T10:04:23.354Z,13.03
2023-04-29T10:06:52.138Z,13.02
2023-04-29T10:09:22.187Z,13.04
2023-04-29T10:11:51.391Z,13.03
2023-04-29T10:14:20.159Z,12.98
2023-04-29T10:16:50.777Z,12.99
2023-04-29T10:19:34.237Z,12.97
2023-04-29T10:22:05.915Z,12.92
2023-04-29T10:24:37.627Z,12.92
2023-04-29T10:27:08.364Z,13.04
2023-04-29T10:29:38.031Z,13.04
2023-04-29T10:32:10.671Z,13.18
2023-04-29T10:34:40.425Z,13.54
2023-04-29T10:37:10.912Z,13.51
2023-04-29T10:39:48.975Z,13.52
2023-04-29T10:42:36.076Z,13.54
2023-04-29T10:45:26.840Z,13.46
2023-04-29T10:48:15.009Z,13.40
2023-04-29T10:51:03.074Z,13.18
2023-04-29T10:53:30.926Z,13.08
2023-04-29T10:56:06.209Z,13.07
2023-04-29T10:58:44.525Z,13.09
2023-04-29T11:01:13.594Z,13.03
2023-04-29T11:04:01.537Z,12.99
2023-04-29T11:06:41.076Z,13.08
2023-04-29T11:09:14.325Z,13.19
2023-04-29T11:11:48.962Z,13.16
2023-04-29T11:14:22.265Z,13.21
2023-04-29T11:16:52.783Z,13.13
2023-04-29T11:19:20.658Z,13.02
2023-04-29T11:21:48.784Z,13.06
2023-04-29T11:24:17.427Z,12.96
2023-04-29T11:26:46.354Z,12.95
2023-04-29T11:29:13.909Z,13.00
2023-04-29T11:31:41.605Z,12.98
2023-04-29T11:34:09.103Z,13.08
2023-04-29T11:36:37.137Z,13.08
2023-04-29T11:39:05.378Z,13.16
2023-04-29T11:41:32.973Z,13.34
2023-04-29T11:44:03.423Z,13.24
2023-04-29T11:46:32.264Z,13.38
2023-04-29T11:49:00.905Z,13.50
2023-04-29T11:51:28.961Z,13.39
2023-04-29T11:53:57.769Z,13.28
2023-04-29T11:56:26.072Z,13.21
2023-04-29T11:58:57.813Z,13.21
2023-04-29T12:01:27.769Z,13.15
2023-04-29T12:03:59.544Z,13.11
2023-04-29T12:06:28.988Z,12.99
2023-04-29T12:08:56.465Z,12.97
2023-04-29T12:11:25.686Z,12.97
2023-04-29T12:13:53.369Z,12.97
2023-04-29T12:16:21.021Z,13.17
2023-04-29T12:18:49.868Z,13.29
2023-04-29T12:21:17.587Z,13.32
2023-04-29T12:23:46.937Z,13.36
2023-04-29T12:26:15.053Z,13.27
2023-04-29T12:28:43.808Z,13.26
2023-04-29T12:31:11.999Z,13.10
2023-04-29T12:33:39.491Z,12.88
2023-04-29T12:36:18.075Z,12.94
2023-04-29T12:38:46.646Z,13.03
2023-04-29T12:41:15.606Z,12.99
2023-04-29T12:43:43.134Z,13.13
2023-04-29T12:46:12.764Z,13.20
2023-04-29T12:48:43.447Z,13.33
2023-04-29T12:51:12.518Z,13.18
2023-04-29T12:53:40.688Z,13.32
2023-04-29T12:56:08.978Z,13.29
2023-04-29T12:58:36.714Z,13.38
2023-04-29T13:01:04.467Z,13.40
2023-04-29T13:03:33.080Z,13.26
2023-04-29T13:06:01.308Z,13.36
2023-04-29T13:08:30.116Z,13.45
2023-04-29T13:10:57.675Z,13.36
2023-04-29T13:13:25.372Z,13.31
2023-04-29T13:15:52.972Z,13.19
2023-04-29T13:18:20.667Z,13.33
2023-04-29T13:20:48.113Z,13.23
2023-04-29T13:23:16.419Z,13.40
2023-04-29T13:25:45.278Z,13.28
2023-04-29T13:28:12.806Z,13.24
2023-04-29T13:30:40.327Z,13.28
2023-04-29T13:33:12.263Z,13.24
2023-04-29T13:35:41.505Z,13.11
2023-04-29T13:38:09.183Z,13.31
2023-04-29T13:40:40.673Z,13.29
2023-04-29T13:43:16.642Z,13.18
2023-04-29T13:45:53.079Z,13.52
2023-04-29T13:54:01.750Z,13.62
2023-04-29T13:59:31.609Z,13.40
2023-04-29T14:04:01.797Z,13.40
2023-04-29T14:06:30.409Z,13.21
2023-04-29T14:08:57.899Z,13.20
2023-04-29T14:11:25.402Z,13.13
2023-04-29T14:13:54.319Z,13.01
2023-04-29T14:16:21.861Z,12.96
2023-04-29T14:18:49.455Z,12.89
2023-04-29T14:21:16.948Z,12.93
2023-04-29T14:23:44.470Z,12.89
2023-04-29T14:26:27.369Z,12.86
2023-04-29T14:28:58.282Z,12.71
2023-04-29T14:31:27.876Z,12.57
2023-04-29T14:33:55.981Z,12.66
2023-04-29T14:36:23.584Z,12.55
2023-04-29T14:38:51.130Z,12.58
2023-04-29T14:41:18.626Z,12.59
2023-04-29T14:43:46.516Z,12.59
2023-04-29T14:46:15.529Z,12.66
2023-04-29T14:48:43.356Z,12.79
2023-04-29T14:51:11.519Z,12.81
2023-04-29T14:53:39.052Z,12.79
2023-04-29T14:56:07.943Z,12.83
2023-04-29T14:58:35.644Z,12.88
2023-04-29T15:01:03.128Z,12.81
2023-04-29T15:03:32.181Z,12.82
2023-04-29T15:05:59.770Z,12.81
2023-04-29T15:08:27.503Z,12.81
2023-04-29T15:10:54.958Z,12.95
2023-04-29T15:13:22.520Z,13.05
2023-04-29T15:15:50.896Z,13.02
2023-04-29T15:18:18.310Z,12.98
2023-04-29T15:20:47.136Z,12.96
2023-04-29T15:23:14.586Z,12.94
2023-04-29T15:25:42.043Z,12.99
2023-04-29T15:28:09.499Z,12.98
2023-04-29T15:30:36.990Z,12.99
2023-04-29T15:33:05.536Z,12.81
2023-04-29T15:35:33.828Z,12.88
2023-04-29T15:38:02.722Z,12.76
2023-04-29T15:40:30.182Z,12.58
2023-04-29T15:42:57.697Z,12.47
2023-04-29T15:45:25.342Z,12.45
2023-04-29T15:47:52.918Z,12.30
2023-04-29T15:50:20.894Z,12.31
2023-04-29T15:52:48.367Z,12.32
2023-04-29T15:55:18.604Z,12.40
2023-04-29T15:57:46.280Z,12.20
2023-04-29T16:00:14.476Z,12.20
2023-04-29T16:02:42.078Z,12.15
2023-04-29T16:05:10.408Z,12.19
2023-04-29T16:07:37.877Z,12.37
2023-04-29T16:10:05.900Z,12.21
2023-04-29T16:12:34.710Z,12.40
2023-04-29T16:15:02.583Z,12.27
2023-04-29T16:17:30.044Z,12.26
2023-04-29T16:19:57.592Z,12.17
2023-04-29T16:22:25.405Z,12.15
2023-04-29T16:24:52.960Z,12.11
2023-04-29T16:27:20.645Z,12.22
2023-04-29T16:29:49.551Z,12.25
2023-04-29T16:32:17.183Z,12.34
2023-04-29T16:34:44.627Z,12.23
2023-04-29T16:37:12.603Z,12.10
2023-04-29T16:39:40.643Z,12.21
2023-04-29T16:42:08.530Z,12.15
2023-04-29T16:44:36.128Z,12.21
2023-04-29T16:47:05.050Z,12.12
2023-04-29T16:49:32.550Z,12.22
2023-04-29T16:52:00.002Z,12.28
2023-04-29T16:54:27.623Z,12.19
2023-04-29T16:56:55.159Z,12.15
2023-04-29T16:59:22.674Z,12.18
2023-04-29T17:01:50.295Z,12.16
2023-04-29T17:04:19.299Z,12.08
2023-04-29T17:06:46.887Z,12.10
2023-04-29T17:09:15.629Z,12.09
2023-04-29T17:11:43.279Z,12.07
2023-04-29T17:14:10.769Z,12.12
2023-04-29T17:16:38.377Z,12.10
2023-04-29T17:19:05.896Z,12.09
2023-04-29T17:21:34.735Z,12.01
2023-04-29T17:24:02.488Z,11.95
2023-04-29T17:26:30.590Z,11.99
2023-04-29T17:28:58.783Z,11.88
2023-04-29T17:31:33.715Z,11.86
2023-04-29T17:34:18.024Z,11.87
2023-04-29T17:36:47.875Z,11.99
2023-04-29T17:39:15.375Z,11.77
2023-04-29T17:41:43.330Z,11.84
2023-04-29T17:44:11.223Z,11.74
2023-04-29T17:46:39.559Z,11.73
2023-04-29T17:49:07.213Z,11.63
2023-04-29T17:51:34.852Z,11.56
2023-04-29T17:54:05.411Z,11.73
2023-04-29T17:56:34.808Z,11.72
2023-04-29T17:59:02.799Z,11.55
2023-04-29T18:01:30.259Z,11.43
2023-04-29T18:03:57.821Z,11.63
2023-04-29T18:06:25.870Z,11.38
2023-04-29T18:08:53.322Z,11.42
2023-04-29T18:11:22.207Z,11.40
2023-04-29T18:13:49.837Z,11.45
2023-04-29T18:16:17.346Z,11.42
2023-04-29T18:18:44.803Z,11.22
2023-04-29T18:21:12.345Z,11.40
2023-04-29T18:23:40.657Z,11.38
2023-04-29T18:26:09.333Z,11.16
2023-04-29T18:28:38.117Z,11.29
2023-04-29T18:31:05.951Z,11.42
2023-04-29T18:33:33.672Z,11.43
2023-04-29T18:36:01.218Z,11.20
2023-04-29T18:38:28.631Z,11.31
2023-04-29T18:40:56.140Z,11.27
2023-04-29T18:43:28.064Z,11.14
2023-04-29T18:45:57.242Z,11.03
2023-04-29T18:48:25.081Z,11.06
2023-04-29T18:50:53.174Z,11.35
2023-04-29T18:53:20.852Z,11.12
2023-04-29T18:55:48.349Z,11.24
2023-04-29T18:58:16.344Z,11.29
2023-04-29T19:00:43.825Z,11.21
2023-04-29T19:03:12.672Z,11.13
2023-04-29T19:05:40.171Z,11.10
2023-04-29T19:08:08.173Z,10.94
2023-04-29T19:10:35.725Z,10.94
2023-04-29T19:13:03.221Z,10.79
2023-04-29T19:15:31.863Z,10.95
2023-04-29T19:17:59.359Z,10.91
2023-04-29T19:20:28.470Z,10.91
2023-04-29T19:22:56.631Z,10.87
2023-04-29T19:25:25.834Z,10.80
2023-04-29T19:27:53.724Z,10.89
2023-04-29T19:30:21.427Z,11.08
2023-04-29T19:32:49.733Z,11.18
2023-04-29T19:35:17.242Z,10.79
2023-04-29T19:37:46.054Z,10.83
2023-04-29T19:40:13.583Z,11.07
2023-04-29T19:42:41.121Z,10.91
2023-04-29T19:45:09.785Z,10.66
2023-04-29T19:47:37.252Z,10.87
2023-04-29T19:50:05.965Z,10.70
2023-04-29T19:52:33.416Z,10.76
2023-04-29T19:55:02.232Z,10.53
2023-04-29T19:57:30.418Z,10.65
2023-04-29T19:59:58.039Z,10.66
2023-04-29T20:02:25.932Z,10.54
2023-04-29T20:04:53.621Z,10.51
2023-04-29T20:07:21.062Z,10.48
2023-04-29T20:09:49.084Z,11.04
2023-04-29T20:12:17.876Z,10.91
2023-04-29T20:14:45.382Z,10.57
2023-04-29T20:17:13.410Z,10.32
2023-04-29T20:19:40.898Z,10.48
2023-04-29T20:22:08.388Z,10.44
2023-04-29T20:24:35.903Z,10.65
2023-04-29T20:27:04.366Z,10.88
2023-04-29T20:29:33.195Z,10.57
2023-04-29T20:32:00.762Z,10.39
2023-04-29T20:34:28.337Z,10.64
2023-04-29T20:36:55.762Z,10.66
2023-04-29T20:39:23.251Z,10.67
2023-04-29T20:41:51.351Z,10.45
2023-04-29T20:44:19.132Z,10.30
2023-04-29T20:46:47.909Z,10.68
2023-04-29T20:49:15.683Z,10.85
2023-04-29T20:51:43.294Z,10.48
2023-04-29T20:54:10.980Z,10.35
2023-04-29T20:56:38.440Z,10.35
2023-04-29T20:59:06.108Z,10.64
2023-04-29T21:01:34.844Z,10.60
2023-04-29T21:04:04.469Z,10.65
2023-04-29T21:06:32.296Z,10.53
2023-04-29T21:08:59.893Z,10.58
2023-04-29T21:11:27.389Z,10.44
2023-04-29T21:13:54.834Z,10.44
2023-04-29T21:16:22.452Z,10.25
2023-04-29T21:18:49.995Z,10.54
2023-04-29T21:21:18.841Z,10.38
2023-04-29T21:23:46.381Z,10.42
2023-04-29T21:26:14.894Z,10.78
2023-04-29T21:28:42.408Z,10.78
2023-04-29T21:31:15.285Z,10.63
2023-04-29T21:33:43.095Z,10.62
2023-04-29T21:36:10.611Z,10.62
2023-04-29T21:38:39.523Z,10.59
2023-04-29T21:41:07.446Z,10.79
2023-04-29T21:43:35.049Z,10.61
2023-04-29T21:46:02.579Z,10.49
2023-04-29T21:48:30.063Z,10.24
2023-04-29T21:50:57.583Z,10.22
2023-04-29T21:53:25.427Z,10.39
2023-04-29T21:55:54.208Z,10.97
2023-04-29T21:58:21.691Z,11.09
2023-04-29T22:00:58.358Z,10.75
2023-04-29T22:03:26.116Z,10.94
2023-04-29T22:05:53.680Z,10.58
2023-04-29T22:08:21.174Z,10.53
2023-04-29T22:10:48.794Z,10.46
2023-04-29T22:13:17.590Z,10.34
2023-04-29T22:15:45.116Z,10.47
2023-04-29T22:18:12.567Z,10.46
2023-04-29T22:20:40.111Z,10.22
2023-04-29T22:23:07.620Z,10.35
2023-04-29T22:25:35.172Z,10.27
2023-04-29T22:28:02.908Z,10.33
2023-04-29T22:30:31.729Z,10.46
2023-04-29T22:32:59.259Z,10.55
2023-04-29T22:35:26.809Z,10.42
2023-04-29T22:37:54.265Z,10.45
2023-04-29T22:40:21.705Z,10.19
2023-04-29T22:42:49.153Z,9.99
2023-04-29T22:45:16.721Z,9.94
2023-04-29T22:47:45.630Z,10.15
2023-04-29T22:50:13.235Z,10.27
2023-04-29T22:52:40.678Z,10.07
2023-04-29T22:55:09.169Z,9.99
2023-04-29T22:57:36.632Z,9.96
2023-04-29T23:00:04.535Z,10.03
2023-04-29T23:02:32.002Z,9.86
2023-04-29T23:05:00.973Z,10.22
2023-04-29T23:07:28.733Z,9.75
2023-04-29T23:09:56.541Z,10.36
2023-04-29T23:12:24.703Z,10.80
2023-04-29T23:14:52.219Z,10.29
2023-04-29T23:17:19.745Z,10.31
2023-04-29T23:19:47.178Z,10.42
2023-04-29T23:22:16.930Z,10.33
2023-04-29T23:24:44.403Z,10.39
2023-04-29T23:27:12.274Z,10.24
2023-04-29T23:29:41.408Z,10.18
2023-04-29T23:32:09.725Z,10.08
2023-04-29T23:34:37.265Z,9.89
2023-04-29T23:37:04.759Z,10.07
2023-04-29T23:39:33.656Z,10.23
2023-04-29T23:42:01.073Z,10.34
2023-04-29T23:44:28.562Z,10.39
2023-04-29T23:46:56.085Z,10.20
2023-04-29T23:49:23.539Z,10.29
2023-04-29T23:51:50.993Z,10.07
2023-04-29T23:54:18.524Z,9.75
2023-04-29T23:56:47.341Z,9.75
2023-04-29T23:59:15.056Z,9.89
